Latest Weather Observations for Jimna

IDQ60801

Issued at 7:02 am EST Saturday 28 February 2015 (issued every 30 minutes, with the page automatically refreshed every 10 minutes)

About weather observations | Map of weather stations | Latest weather observations for QLD | Other Formats
Station Details ID: 040651 Name: JIMNA FORESTRY Lat: -26.66 Lon: 152.46 Height: 523.0 m
Data from the previous 72 hours. | See also: Recent months at Jimna
Date/Time
EST
Temp
°C
App
Temp
°C
Dew
Point
Rel
Hum
%
Delta-T
°C
Wind Press
QNH
hPa
Press
MSL
hPa
Rain
since 9 am
mm
Dir
 
Spd
km/h
Gust
km/h
Spd
kts
Gust
kts
28/07:00am 19.4 - 17.7 90 1.1 - - - - - - - 0.0
28/06:30am 18.7 - 18.4 98 0.2 - - - - - - - 0.0
28/06:00am 18.5 - 18.2 98 0.2 - - - - - - - 0.0
28/05:30am 18.1 - 17.6 97 0.3 - - - - - - - 0.0
28/05:00am 18.2 - 17.9 98 0.2 - - - - - - - 0.0
28/04:30am 17.9 - 16.6 92 0.8 - - - - - - - 0.0
28/04:00am 18.1 - 16.6 91 0.9 - - - - - - - 0.0
28/03:30am 18.4 - 16.9 91 0.9 - - - - - - - 0.0
28/03:00am 18.8 - 17.3 91 0.9 - - - - - - - 0.0
28/02:30am 19.2 - 17.7 91 0.9 - - - - - - - 0.0
28/02:00am 19.2 - 17.7 91 0.9 - - - - - - - 0.0
28/01:30am 19.5 - 18.0 91 0.9 - - - - - - - 0.0
28/01:00am 19.3 - 17.8 91 0.9 - - - - - - - 0.0
28/12:30am 19.4 - 17.9 91 0.9 - - - - - - - 0.0
28/12:00am 19.5 - 17.8 90 1.1 - - - - - - - 0.0
 
Date/Time
EST
Temp
°C
App
Temp
°C
Dew
Point
Rel
Hum
%
Delta-T
°C
Wind Press
QNH
hPa
Press
MSL
hPa
Rain
since 9 am
mm
Dir
 
Spd
km/h
Gust
km/h
Spd
kts
Gust
kts
27/11:30pm 19.5 - 18.0 91 0.9 - - - - - - - 0.0
27/11:00pm 19.6 - 17.7 89 1.2 - - - - - - - 0.0
27/10:30pm 19.9 - 18.0 89 1.2 - - - - - - - 0.0
27/10:00pm 20.2 - 18.3 89 1.2 - - - - - - - 0.0
27/09:30pm 20.3 - 18.2 88 1.3 - - - - - - - 0.0
27/09:00pm 20.3 - 18.2 88 1.3 - - - - - - - 0.0
27/08:30pm 20.2 - 18.1 88 1.3 - - - - - - - 0.0
27/08:00pm 20.1 - 18.0 88 1.3 - - - - - - - 0.0
27/07:30pm 20.5 - 17.9 85 1.6 - - - - - - - 0.0
27/07:00pm 20.9 - 18.1 84 1.8 - - - - - - - 0.0
27/06:30pm 21.4 - 18.6 84 1.8 - - - - - - - 0.0
27/06:00pm 22.1 - 18.5 80 2.3 - - - - - - - 0.0
27/05:30pm 23.2 - 18.5 75 3.0 - - - - - - - 0.0
27/05:00pm 24.2 - 19.7 76 3.0 - - - - - - - 0.0
27/04:30pm 24.0 - 18.6 72 3.5 - - - - - - - 0.0
27/04:00pm 24.3 - 18.9 72 3.5 - - - - - - - 0.0
27/03:30pm 25.2 - 18.2 65 4.5 - - - - - - - 0.0
27/03:00pm 26.8 - 18.4 60 5.5 - - - - - - - 0.0
27/02:30pm 26.4 - 19.3 65 4.7 - - - - - - - 0.0
27/02:00pm 28.1 - 18.8 57 6.1 - - - - - - - 0.0
27/01:30pm 27.1 - 18.1 58 5.8 - - - - - - - 0.0
27/01:00pm 26.9 - 17.9 57 5.8 - - - - - - - 0.0
27/12:30pm 26.7 - 18.3 60 5.4 - - - - - - - 0.0
27/12:00pm 25.7 - 17.1 59 5.5 - - - - - - - 0.0
27/11:30am 25.1 - 17.3 62 5.0 - - - - - - - 0.0
27/11:00am 24.7 - 18.2 67 4.2 - - - - - - - 0.0
27/10:30am 23.8 - 17.8 69 3.8 - - - - - - - 0.0
27/10:00am 22.5 - 18.5 78 2.6 - - - - - - - 0.0
27/09:30am 19.9 - 18.0 89 1.2 - - - - - - - 0.0
27/09:00am 19.1 - 17.6 91 0.9 - - - - - - - 40.8
27/08:30am 18.4 - 17.8 96 0.4 - - - - - - - 40.8
27/08:00am 18.1 - 17.3 95 0.5 - - - - - - - 40.8
27/07:30am 17.8 - 17.0 95 0.5 - - - - - - - 40.0
27/07:00am 18.0 - 17.2 95 0.5 - - - - - - - 37.6
27/06:30am 18.0 - 16.7 92 0.8 - - - - - - - 36.4
27/06:00am 18.7 - 17.2 91 0.9 - - - - - - - 4.0
27/05:30am 19.2 - 17.3 89 1.2 - - - - - - - 0.0
27/05:00am 19.4 - 17.7 90 1.1 - - - - - - - 0.0
27/04:30am 19.4 - 17.9 91 0.9 - - - - - - - 0.0
27/04:00am 19.3 - 17.6 90 1.1 - - - - - - - 0.0
27/03:30am 19.6 - 17.9 90 1.1 - - - - - - - 0.0
27/03:00am 19.4 - 17.7 90 1.1 - - - - - - - 0.0
27/02:30am 19.2 - 17.7 91 0.9 - - - - - - - 0.0
27/02:00am 19.1 - 17.6 91 0.9 - - - - - - - 0.0
27/01:30am 19.2 - 17.5 90 1.1 - - - - - - - 0.0
27/01:00am 19.5 - 17.8 90 1.1 - - - - - - - 0.0
27/12:30am 19.3 - 17.6 90 1.1 - - - - - - - 0.0
27/12:00am 19.2 - 17.5 90 1.1 - - - - - - - 0.0
 
Date/Time
EST
Temp
°C
App
Temp
°C
Dew
Point
Rel
Hum
%
Delta-T
°C
Wind Press
QNH
hPa
Press
MSL
hPa
Rain
since 9 am
mm
Dir
 
Spd
km/h
Gust
km/h
Spd
kts
Gust
kts
26/11:30pm 19.4 - 17.5 89 1.2 - - - - - - - 0.0
26/11:00pm 19.6 - 17.6 88 1.3 - - - - - - - 0.0
26/10:30pm 20.0 - 17.8 87 1.4 - - - - - - - 0.0
26/10:00pm 20.1 - 17.9 87 1.4 - - - - - - - 0.0
26/09:30pm 20.1 - 17.9 87 1.4 - - - - - - - 0.0
26/09:00pm 20.0 - 17.8 87 1.4 - - - - - - - 0.0
26/08:30pm 20.1 - 17.7 86 1.5 - - - - - - - 0.0
26/08:00pm 20.3 - 17.7 85 1.6 - - - - - - - 0.0
26/07:30pm 20.7 - 17.7 83 1.9 - - - - - - - 0.0
26/07:00pm 21.1 - 17.5 80 2.3 - - - - - - - 0.0
26/06:30pm 22.0 - 18.0 78 2.5 - - - - - - - 0.0
26/06:00pm 22.8 - 18.1 75 3.0 - - - - - - - 0.0
26/05:30pm 23.9 - 18.1 70 3.7 - - - - - - - 0.0
26/05:00pm 25.5 - 17.4 61 5.2 - - - - - - - 0.0
26/04:30pm 26.0 - 17.1 58 5.7 - - - - - - - 0.0
26/04:00pm 27.2 - 19.3 62 5.2 - - - - - - - 0.0
26/03:30pm 26.8 - 16.7 54 6.4 - - - - - - - 0.0
26/03:00pm 26.0 - 16.8 57 5.8 - - - - - - - 0.0
26/02:30pm 26.5 - 16.7 55 6.2 - - - - - - - 0.0
26/02:00pm 27.6 - 17.5 54 6.5 - - - - - - - 0.0
26/01:30pm 27.5 - 17.9 55 6.2 - - - - - - - 0.0
26/01:00pm 26.5 - 17.6 58 5.7 - - - - - - - 0.0
26/12:30pm 25.1 - 16.0 57 5.7 - - - - - - - 0.0
26/12:00pm 26.0 - 16.0 54 6.3 - - - - - - - 0.0
26/11:30am 24.6 - 15.8 58 5.5 - - - - - - - 0.0
26/11:00am 25.3 - 16.2 57 5.7 - - - - - - - 0.0
26/10:30am 25.1 - 16.8 60 5.2 - - - - - - - 0.0
26/10:00am 24.1 - 17.4 66 4.3 - - - - - - - 0.0
26/09:30am 24.1 - 16.6 63 4.7 - - - - - - - 0.0
26/09:00am 23.2 - 17.4 70 3.7 - - - - - - - 0.0
26/08:30am 21.0 - 17.6 81 2.1 - - - - - - - 0.0
26/08:00am 20.5 - 17.5 83 1.9 - - - - - - - 0.0
26/07:30am 19.3 - 17.1 87 1.4 - - - - - - - 0.0
26/07:00am 18.0 - 17.7 98 0.2 - - - - - - - 0.0
26/06:30am 16.0 - 15.8 99 0.1 - - - - - - - 0.0
26/06:00am 15.4 - 14.1 92 0.8 - - - - - - - 0.0
26/05:30am 15.9 - 15.4 97 0.3 - - - - - - - 0.0
26/05:00am 15.5 - 14.0 91 0.9 - - - - - - - 0.0
26/04:30am 15.7 - 14.1 90 0.9 - - - - - - - 0.0
26/04:00am 16.0 - 14.4 90 0.9 - - - - - - - 0.0
26/03:30am 16.2 - 14.6 90 0.9 - - - - - - - 0.0
26/03:00am 16.5 - 14.5 88 1.2 - - - - - - - 0.0
26/02:30am 17.3 - 15.3 88 1.2 - - - - - - - 0.0
26/02:00am 17.9 - 15.7 87 1.3 - - - - - - - 0.0
26/01:30am 18.2 - 15.6 85 1.6 - - - - - - - 0.0
26/01:00am 18.4 - 15.6 84 1.7 - - - - - - - 0.0
26/12:30am 18.7 - 16.1 85 1.6 - - - - - - - 0.0
26/12:00am 18.6 - 16.0 85 1.6 - - - - - - - 0.0
 
Date/Time
EST
Temp
°C
App
Temp
°C
Dew
Point
Rel
Hum
%
Delta-T
°C
Wind Press
QNH
hPa
Press
MSL
hPa
Rain
since 9 am
mm
Dir
 
Spd
km/h
Gust
km/h
Spd
kts
Gust
kts
25/11:30pm 18.9 - 15.8 82 1.9 - - - - - - - 0.0
25/11:00pm 19.5 - 16.2 81 2.0 - - - - - - - 0.0
25/10:30pm 19.5 - 16.2 81 2.0 - - - - - - - 0.0
25/10:00pm 19.8 - 16.1 79 2.3 - - - - - - - 0.0
25/09:30pm 19.9 - 16.5 81 2.1 - - - - - - - 0.0
25/09:00pm 20.0 - 16.6 81 2.1 - - - - - - - 0.0
25/08:30pm 20.3 - 16.5 79 2.3 - - - - - - - 0.0
25/08:00pm 20.4 - 16.6 79 2.3 - - - - - - - 0.0
25/07:30pm 20.8 - 16.6 77 2.6 - - - - - - - 0.0
25/07:00pm 21.1 - 16.7 76 2.7 - - - - - - - 0.0
25/06:30pm 21.8 - 17.0 74 3.0 - - - - - - - 0.0
25/06:00pm 22.6 - 16.9 70 3.6 - - - - - - - 0.0
25/05:30pm 23.1 - 16.4 66 4.2 - - - - - - - 0.0
25/05:00pm 23.8 - 16.3 63 4.7 - - - - - - - 0.0
25/04:30pm 24.5 - 16.5 61 5.0 - - - - - - - 0.0
25/04:00pm 24.5 - 16.2 60 5.2 - - - - - - - 0.0
25/03:30pm 26.4 - 17.7 58 5.6 - - - - - - - 0.0
25/03:00pm 25.8 - 17.7 61 5.2 - - - - - - - 0.0
25/02:30pm 26.8 - 17.3 56 6.1 - - - - - - - 0.0
25/02:00pm 26.2 - 17.0 57 5.8 - - - - - - - 0.0
25/01:30pm 26.1 - 17.2 58 5.7 - - - - - - - 0.0
25/01:00pm 26.7 - 18.6 61 5.3 - - - - - - - 0.0
25/12:30pm 26.7 - 17.7 57 5.8 - - - - - - - 0.0
25/12:00pm 24.9 - 16.9 61 5.1 - - - - - - - 0.0
25/11:30am 25.1 - 17.8 64 4.7 - - - - - - - 0.0
25/11:00am 25.0 - 17.5 63 4.8 - - - - - - - 0.0
25/10:30am 23.6 - 17.6 69 3.8 - - - - - - - 0.0
25/10:00am 22.9 - 18.0 74 3.1 - - - - - - - 0.0
25/09:30am 21.9 - 17.7 77 2.7 - - - - - - - 0.0
25/09:00am 21.8 - 18.6 82 2.1 - - - - - - - 0.6
25/08:30am 20.8 - 18.0 84 1.8 - - - - - - - 0.6
25/08:00am 20.2 - 18.0 87 1.4 - - - - - - - 0.6
25/07:30am 20.2 - 18.3 89 1.2 - - - - - - - 0.6

Other Formats:

Comma delimited format used in spreadsheet applications
http://www.bom.gov.au/fwo/IDQ60801/IDQ60801.94557.axf

JavaScript Object Notation format (JSON) in row-major order
http://www.bom.gov.au/fwo/IDQ60801/IDQ60801.94557.json